createdAt,value
2023-08-21T00:00:22.207Z,7.32
2023-08-21T00:02:49.481Z,6.97
2023-08-21T00:05:16.794Z,6.78
2023-08-21T00:07:44.922Z,6.53
2023-08-21T00:10:15.229Z,6.50
2023-08-21T00:12:42.473Z,7.05
2023-08-21T00:15:11.025Z,7.07
2023-08-21T00:17:38.192Z,6.15
2023-08-21T00:20:05.673Z,6.97
2023-08-21T00:22:32.948Z,5.78
2023-08-21T00:25:00.249Z,5.63
2023-08-21T00:27:27.514Z,5.65
2023-08-21T00:29:54.720Z,6.13
2023-08-21T00:32:22.077Z,6.00
2023-08-21T00:34:49.317Z,5.55
2023-08-21T00:37:16.541Z,5.28
2023-08-21T00:39:46.531Z,5.60
2023-08-21T00:42:13.755Z,5.15
2023-08-21T00:44:40.919Z,5.20
2023-08-21T00:47:08.761Z,4.88
2023-08-21T00:49:36.021Z,5.50
2023-08-21T00:52:03.332Z,5.55
2023-08-21T00:54:30.901Z,5.40
2023-08-21T00:56:58.154Z,4.57
2023-08-21T00:59:25.459Z,5.30
2023-08-21T01:01:53.367Z,5.00
2023-08-21T01:04:20.513Z,5.25
2023-08-21T01:06:47.734Z,5.18
2023-08-21T01:09:19.542Z,4.88
2023-08-21T01:11:46.675Z,4.90
2023-08-21T01:14:22.891Z,4.60
2023-08-21T01:16:53.861Z,4.65
2023-08-21T01:19:26.574Z,4.72
2023-08-21T01:21:53.877Z,4.85
2023-08-21T01:24:21.704Z,4.75
2023-08-21T01:26:48.929Z,4.95
2023-08-21T01:29:16.106Z,5.38
2023-08-21T01:31:45.375Z,4.68
2023-08-21T01:34:13.042Z,5.00
2023-08-21T01:36:40.889Z,4.70
2023-08-21T01:39:08.187Z,5.30
2023-08-21T01:41:35.433Z,4.68
2023-08-21T01:44:02.590Z,5.22
2023-08-21T01:46:29.755Z,4.95
2023-08-21T01:48:56.948Z,5.22
2023-08-21T01:51:24.285Z,5.60
2023-08-21T01:53:51.581Z,5.10
2023-08-21T01:56:19.091Z,5.25
2023-08-21T01:58:46.289Z,5.65
2023-08-21T02:01:13.518Z,5.97
2023-08-21T02:03:41.178Z,5.75
2023-08-21T02:06:08.430Z,5.45
2023-08-21T02:08:35.754Z,4.82
2023-08-21T02:11:03.240Z,5.30
2023-08-21T02:13:30.390Z,5.63
2023-08-21T02:15:57.717Z,5.68
2023-08-21T02:18:25.044Z,6.00
2023-08-21T02:20:52.274Z,5.78
2023-08-21T02:23:19.543Z,5.40
2023-08-21T02:25:46.757Z,5.40
2023-08-21T02:28:14.007Z,6.18
2023-08-21T02:30:42.229Z,5.43
2023-08-21T02:33:09.552Z,5.75
2023-08-21T02:35:37.191Z,5.82
2023-08-21T02:38:04.484Z,5.43
2023-08-21T02:40:31.747Z,5.32
2023-08-21T02:42:59.295Z,6.10
2023-08-21T02:45:26.443Z,6.20
2023-08-21T02:47:53.702Z,6.63
2023-08-21T02:50:20.937Z,5.60
2023-08-21T02:52:48.109Z,5.90
2023-08-21T02:55:16.829Z,5.28
2023-08-21T02:57:44.239Z,5.65
2023-08-21T03:00:12.935Z,5.15
2023-08-21T03:02:44.610Z,5.53
2023-08-21T03:05:12.610Z,6.18
2023-08-21T03:07:40.339Z,5.40
2023-08-21T03:10:08.318Z,5.80
2023-08-21T03:12:35.899Z,5.90
2023-08-21T03:15:04.017Z,5.65
2023-08-21T03:17:31.280Z,5.45
2023-08-21T03:19:58.533Z,6.13
2023-08-21T03:22:25.781Z,6.05
2023-08-21T03:24:53.043Z,5.80
2023-08-21T03:27:20.352Z,5.40
2023-08-21T03:29:49.840Z,5.57
2023-08-21T03:32:19.927Z,5.63
2023-08-21T03:34:47.356Z,6.05
2023-08-21T03:37:14.549Z,5.80
2023-08-21T03:39:41.699Z,6.43
2023-08-21T03:42:08.924Z,5.70
2023-08-21T03:44:36.141Z,6.28
2023-08-21T03:47:03.346Z,5.22
2023-08-21T03:49:30.470Z,5.43
2023-08-21T03:51:57.595Z,6.22
2023-08-21T03:54:24.803Z,7.10
2023-08-21T03:56:52.017Z,6.80
2023-08-21T03:59:19.420Z,6.88
2023-08-21T04:01:46.654Z,5.70
2023-08-21T04:04:13.998Z,6.22
2023-08-21T04:06:41.351Z,8.00
2023-08-21T04:09:08.540Z,7.80
2023-08-21T04:11:36.973Z,7.30
2023-08-21T04:14:04.183Z,7.22
2023-08-21T04:16:31.939Z,6.93
2023-08-21T04:18:59.191Z,6.90
2023-08-21T04:21:26.396Z,7.22
2023-08-21T04:23:54.552Z,7.55
2023-08-21T04:26:21.794Z,6.93
2023-08-21T04:28:48.927Z,7.07
2023-08-21T04:31:16.282Z,7.75
2023-08-21T04:33:43.518Z,7.35
2023-08-21T04:36:16.176Z,7.63
2023-08-21T04:38:43.758Z,7.30
2023-08-21T04:41:11.204Z,6.95
2023-08-21T04:43:38.459Z,7.00
2023-08-21T04:46:06.532Z,8.43
2023-08-21T04:48:33.779Z,7.72
2023-08-21T04:51:01.005Z,7.05
2023-08-21T04:53:28.252Z,8.27
2023-08-21T04:55:55.482Z,7.47
2023-08-21T04:58:22.836Z,7.00
2023-08-21T05:00:50.042Z,8.00
2023-08-21T05:03:17.410Z,8.43
2023-08-21T05:05:53.382Z,7.93
2023-08-21T05:08:20.633Z,7.72
2023-08-21T05:10:47.801Z,7.10
2023-08-21T05:13:18.125Z,7.75
2023-08-21T05:15:45.299Z,8.32
2023-08-21T05:18:12.620Z,8.10
2023-08-21T05:20:40.419Z,8.35
2023-08-21T05:23:07.740Z,8.13
2023-08-21T05:25:35.049Z,7.50
2023-08-21T05:28:02.304Z,7.20
2023-08-21T05:30:29.503Z,7.57
2023-08-21T05:32:56.737Z,6.90
2023-08-21T05:35:24.052Z,5.95
2023-08-21T05:37:53.039Z,6.68
2023-08-21T05:40:21.704Z,6.18
2023-08-21T05:42:48.906Z,6.07
2023-08-21T05:45:16.027Z,5.57
2023-08-21T05:47:43.217Z,5.85
2023-08-21T05:50:11.152Z,5.20
2023-08-21T05:52:41.121Z,4.85
2023-08-21T05:55:10.251Z,4.50
2023-08-21T05:57:38.562Z,5.10
2023-08-21T06:00:09.258Z,5.05
2023-08-21T06:02:36.671Z,5.13
2023-08-21T06:05:04.309Z,4.72
2023-08-21T06:07:31.589Z,4.97
2023-08-21T06:09:58.800Z,3.97
2023-08-21T06:12:26.050Z,4.63
2023-08-21T06:14:53.274Z,5.00
2023-08-21T06:17:20.729Z,4.72
2023-08-21T06:19:47.880Z,4.65
2023-08-21T06:22:16.529Z,4.20
2023-08-21T06:24:43.783Z,4.22
2023-08-21T06:27:10.963Z,4.63
2023-08-21T06:29:41.624Z,4.55
2023-08-21T06:32:08.819Z,4.47
2023-08-21T06:34:36.249Z,4.38
2023-08-21T06:37:03.575Z,4.88
2023-08-21T06:39:30.773Z,4.90
2023-08-21T06:41:58.048Z,4.78
2023-08-21T06:44:25.245Z,4.70
2023-08-21T06:46:52.440Z,4.80
2023-08-21T06:49:19.855Z,4.68
2023-08-21T06:51:47.012Z,4.00
2023-08-21T06:54:14.277Z,4.07
2023-08-21T06:56:41.559Z,4.20
2023-08-21T06:59:08.786Z,4.30
2023-08-21T07:01:36.078Z,4.35
2023-08-21T07:04:03.229Z,4.05
2023-08-21T07:06:32.461Z,4.72
2023-08-21T07:08:59.741Z,3.50
2023-08-21T07:11:27.017Z,3.45
2023-08-21T07:13:54.275Z,3.53
2023-08-21T07:16:21.578Z,3.28
2023-08-21T07:18:48.887Z,3.58
2023-08-21T07:21:30.909Z,3.40
2023-08-21T07:24:01.230Z,3.53
2023-08-21T07:26:29.712Z,3.90
2023-08-21T07:28:56.957Z,3.42
2023-08-21T07:31:24.607Z,3.60
2023-08-21T07:33:51.858Z,3.25
2023-08-21T07:36:19.200Z,3.03
2023-08-21T07:38:46.624Z,2.70
2023-08-21T07:41:14.575Z,2.55
2023-08-21T07:43:43.290Z,2.58
2023-08-21T07:46:14.686Z,2.60
2023-08-21T07:48:42.031Z,2.47
2023-08-21T07:51:09.267Z,2.55
2023-08-21T07:53:36.564Z,2.60
2023-08-21T07:56:05.040Z,2.38
2023-08-21T07:58:32.717Z,2.47
2023-08-21T08:01:02.302Z,2.63
2023-08-21T08:03:29.707Z,2.88
2023-08-21T08:05:57.316Z,2.35
2023-08-21T08:08:24.937Z,2.30
2023-08-21T08:10:52.337Z,2.83
2023-08-21T08:13:19.657Z,2.60
2023-08-21T08:15:47.145Z,2.97
2023-08-21T08:18:15.085Z,2.72
2023-08-21T08:20:42.455Z,2.92
2023-08-21T08:23:09.663Z,2.85
2023-08-21T08:25:37.075Z,3.05
2023-08-21T08:28:04.538Z,3.03
2023-08-21T08:30:31.736Z,2.50
2023-08-21T08:32:58.950Z,3.30
2023-08-21T08:35:26.177Z,2.65
2023-08-21T08:37:53.424Z,3.00
2023-08-21T08:40:20.798Z,2.78
2023-08-21T08:42:49.010Z,2.88
2023-08-21T08:45:16.250Z,2.78
2023-08-21T08:47:43.688Z,2.72
2023-08-21T08:50:11.382Z,2.50
2023-08-21T08:52:40.019Z,2.67
2023-08-21T08:55:08.828Z,2.38
2023-08-21T08:57:36.204Z,2.55
2023-08-21T09:00:05.070Z,2.63
2023-08-21T09:02:38.577Z,2.75
2023-08-21T09:05:07.752Z,2.78
2023-08-21T09:07:34.925Z,2.55
2023-08-21T09:10:02.866Z,2.60
2023-08-21T09:12:33.158Z,2.55
2023-08-21T09:15:00.677Z,2.13
2023-08-21T09:17:28.270Z,2.20
2023-08-21T09:19:55.660Z,2.58
2023-08-21T09:22:23.638Z,2.88
2023-08-21T09:25:07.401Z,2.38
2023-08-21T09:27:35.470Z,2.70
2023-08-21T09:30:06.706Z,2.42
2023-08-21T09:32:53.480Z,2.83
2023-08-21T09:35:20.703Z,2.28
2023-08-21T09:37:53.946Z,2.45
2023-08-21T09:40:22.427Z,2.67
2023-08-21T09:42:57.347Z,2.65
2023-08-21T09:45:25.375Z,2.10
2023-08-21T09:47:54.251Z,2.55
2023-08-21T09:50:22.167Z,2.35
2023-08-21T09:52:49.360Z,2.28
2023-08-21T09:55:16.754Z,2.60
2023-08-21T09:57:43.980Z,2.03
2023-08-21T10:00:21.198Z,2.28
2023-08-21T10:02:51.881Z,2.72
2023-08-21T10:05:19.675Z,2.72
2023-08-21T10:07:51.517Z,3.35
2023-08-21T10:10:19.227Z,2.97
2023-08-21T10:12:46.562Z,3.25
2023-08-21T10:15:14.217Z,2.67
2023-08-21T10:17:41.727Z,2.95
2023-08-21T10:20:10.604Z,2.92
2023-08-21T10:22:44.060Z,2.92
2023-08-21T10:25:24.619Z,3.67
2023-08-21T10:27:53.331Z,3.15
2023-08-21T10:30:27.645Z,3.53
2023-08-21T10:32:56.227Z,3.20
2023-08-21T10:35:24.290Z,3.40
2023-08-21T10:38:10.144Z,3.08
2023-08-21T10:40:37.718Z,2.90
2023-08-21T10:43:05.051Z,2.53
2023-08-21T10:45:32.840Z,2.90
2023-08-21T10:48:03.169Z,2.58
2023-08-21T10:50:30.373Z,2.70
2023-08-21T10:52:57.618Z,2.70
2023-08-21T10:55:24.866Z,3.50
2023-08-21T10:57:52.142Z,2.65
2023-08-21T11:00:21.583Z,2.80
2023-08-21T11:02:49.605Z,2.55
2023-08-21T11:05:17.408Z,2.63
2023-08-21T11:07:45.782Z,3.00
2023-08-21T11:10:14.393Z,2.78
2023-08-21T11:13:07.808Z,3.10
2023-08-21T11:15:35.453Z,2.80
2023-08-21T11:18:03.784Z,2.55
2023-08-21T11:20:38.010Z,2.60
2023-08-21T11:23:08.932Z,2.70
2023-08-21T11:25:39.426Z,2.50
2023-08-21T11:28:07.174Z,2.35
2023-08-21T11:30:34.413Z,2.40
2023-08-21T11:33:11.816Z,2.70
2023-08-21T11:35:39.623Z,2.47
2023-08-21T11:38:09.836Z,2.45
2023-08-21T11:40:37.796Z,2.60
2023-08-21T11:43:06.623Z,2.70
2023-08-21T11:45:45.283Z,2.80
2023-08-21T11:48:16.934Z,2.53
2023-08-21T11:50:45.729Z,2.08
2023-08-21T11:53:13.402Z,2.42
2023-08-21T11:55:41.050Z,2.80
2023-08-21T11:58:08.898Z,3.13
2023-08-21T12:00:36.074Z,2.10
2023-08-21T12:03:07.796Z,3.08
2023-08-21T12:05:35.084Z,2.38
2023-08-21T12:08:02.286Z,2.40
2023-08-21T12:10:30.179Z,2.33
2023-08-21T12:12:57.713Z,2.72
2023-08-21T12:15:25.026Z,2.88
2023-08-21T12:17:52.428Z,2.72
2023-08-21T12:20:19.948Z,2.40
2023-08-21T12:22:47.275Z,2.47
2023-08-21T12:25:15.119Z,2.85
2023-08-21T12:27:42.283Z,2.67
2023-08-21T12:30:09.972Z,3.13
2023-08-21T12:32:37.259Z,2.60
2023-08-21T12:35:06.593Z,2.97
2023-08-21T12:37:34.027Z,3.05
2023-08-21T12:40:01.400Z,2.55
2023-08-21T12:42:28.857Z,3.03
2023-08-21T12:44:56.104Z,2.80
2023-08-21T12:47:23.305Z,3.17
2023-08-21T12:49:50.492Z,2.92
2023-08-21T12:52:17.698Z,3.15
2023-08-21T12:54:45.105Z,2.90
2023-08-21T12:57:15.306Z,3.30
2023-08-21T12:59:42.516Z,3.40
2023-08-21T13:02:09.734Z,3.40
2023-08-21T13:04:36.949Z,3.38
2023-08-21T13:07:04.655Z,4.07
2023-08-21T13:09:32.022Z,3.78
2023-08-21T13:11:59.146Z,3.65
2023-08-21T13:14:26.331Z,3.05
2023-08-21T13:16:53.538Z,3.60
2023-08-21T13:19:21.808Z,3.70
2023-08-21T13:21:49.061Z,3.40
2023-08-21T13:24:16.198Z,3.80
2023-08-21T13:26:43.431Z,3.50
2023-08-21T13:29:10.612Z,4.00
2023-08-21T13:31:37.996Z,3.42
2023-08-21T13:34:05.617Z,3.67
2023-08-21T13:36:33.173Z,4.25
2023-08-21T13:39:00.491Z,3.30
2023-08-21T13:41:27.726Z,3.45
2023-08-21T13:43:55.763Z,3.63
2023-08-21T13:46:23.166Z,3.92
2023-08-21T13:48:50.350Z,3.53
2023-08-21T13:51:19.856Z,3.80
2023-08-21T13:53:48.866Z,3.50
2023-08-21T13:56:16.008Z,3.88
2023-08-21T13:58:43.239Z,3.65
2023-08-21T14:01:10.459Z,3.80
2023-08-21T14:03:37.850Z,3.60
2023-08-21T14:06:05.133Z,3.50
2023-08-21T14:08:32.336Z,3.10
2023-08-21T14:10:59.597Z,3.50
2023-08-21T14:13:26.857Z,3.65
2023-08-21T14:15:54.558Z,3.65
2023-08-21T14:18:21.874Z,3.53
2023-08-21T14:20:49.114Z,3.38
2023-08-21T14:23:16.274Z,3.13
2023-08-21T14:25:43.782Z,3.50
2023-08-21T14:28:10.938Z,3.42
2023-08-21T14:30:38.168Z,3.15
2023-08-21T14:33:06.082Z,3.33
2023-08-21T14:35:33.362Z,3.30
2023-08-21T14:38:00.500Z,3.60
2023-08-21T14:40:27.794Z,3.35
2023-08-21T14:42:55.038Z,3.05
2023-08-21T14:45:22.311Z,3.42
2023-08-21T14:47:49.592Z,3.20
2023-08-21T14:50:17.015Z,2.88
2023-08-21T14:52:44.201Z,3.47
2023-08-21T14:55:11.424Z,3.05
2023-08-21T14:57:38.670Z,3.13
2023-08-21T15:00:06.356Z,2.88
2023-08-21T15:02:33.584Z,3.33
2023-08-21T15:05:06.320Z,3.20
2023-08-21T15:07:33.806Z,3.90
2023-08-21T15:10:01.017Z,3.30
2023-08-21T15:12:28.180Z,3.50
2023-08-21T15:14:55.357Z,3.17
2023-08-21T15:17:22.608Z,3.35
2023-08-21T15:19:52.701Z,3.50
2023-08-21T15:22:20.647Z,3.28
2023-08-21T15:24:47.858Z,3.35
2023-08-21T15:27:15.147Z,3.13
2023-08-21T15:29:44.611Z,3.13
2023-08-21T15:32:11.815Z,2.97
2023-08-21T15:34:39.006Z,2.80
2023-08-21T15:37:06.317Z,2.53
2023-08-21T15:39:33.665Z,2.55
2023-08-21T15:42:00.948Z,2.28
2023-08-21T15:44:28.231Z,3.10
2023-08-21T15:47:05.988Z,2.10
2023-08-21T15:49:40.517Z,2.60
2023-08-21T15:52:09.326Z,2.80
2023-08-21T15:54:37.404Z,2.63
2023-08-21T15:57:05.864Z,2.85
2023-08-21T15:59:33.046Z,2.83
2023-08-21T16:02:00.729Z,2.90
2023-08-21T16:04:27.884Z,2.80
2023-08-21T16:06:55.144Z,2.80
2023-08-21T16:09:22.471Z,2.25
2023-08-21T16:11:49.679Z,2.90
2023-08-21T16:14:16.907Z,2.63
2023-08-21T16:16:44.905Z,2.92
2023-08-21T16:19:12.738Z,2.88
2023-08-21T16:21:39.944Z,2.90
2023-08-21T16:24:07.263Z,2.67
2023-08-21T16:26:34.545Z,3.40
2023-08-21T16:29:01.866Z,3.45
2023-08-21T16:31:29.111Z,3.38
2023-08-21T16:33:56.339Z,3.25
2023-08-21T16:36:23.535Z,3.38
2023-08-21T16:38:50.788Z,3.03
2023-08-21T16:41:18.038Z,3.33
2023-08-21T16:43:46.163Z,3.78
2023-08-21T16:46:13.853Z,3.45
2023-08-21T16:48:41.112Z,2.72
2023-08-21T16:51:08.345Z,3.80
2023-08-21T16:53:35.545Z,3.08
2023-08-21T16:56:02.978Z,3.20
2023-08-21T16:58:30.207Z,3.50
2023-08-21T17:00:57.398Z,3.30
2023-08-21T17:03:24.638Z,3.33
2023-08-21T17:05:51.836Z,3.20
2023-08-21T17:08:19.101Z,3.90
2023-08-21T17:10:46.419Z,3.40
2023-08-21T17:13:13.588Z,3.40
2023-08-21T17:15:40.895Z,4.45
2023-08-21T17:18:08.407Z,3.03
2023-08-21T17:20:36.760Z,2.78
2023-08-21T17:23:04.384Z,3.10
2023-08-21T17:25:31.696Z,2.63
2023-08-21T17:27:58.900Z,2.65
2023-08-21T17:30:29.100Z,2.75
2023-08-21T17:32:56.995Z,2.67
2023-08-21T17:35:24.254Z,2.55
2023-08-21T17:37:51.462Z,2.33
2023-08-21T17:40:18.742Z,2.80
2023-08-21T17:42:45.895Z,2.40
2023-08-21T17:45:13.139Z,2.88
2023-08-21T17:47:40.659Z,2.42
2023-08-21T17:50:08.710Z,2.28
2023-08-21T17:52:36.372Z,2.20
2023-08-21T17:55:04.523Z,1.88
2023-08-21T17:57:31.916Z,2.65
2023-08-21T17:59:59.130Z,1.77
2023-08-21T18:02:27.782Z,2.22
2023-08-21T18:04:55.538Z,1.90
2023-08-21T18:07:22.971Z,1.60
2023-08-21T18:09:50.237Z,1.73
2023-08-21T18:12:17.414Z,1.70
2023-08-21T18:14:44.596Z,2.05
2023-08-21T18:17:15.116Z,1.95
2023-08-21T18:19:47.590Z,1.88
2023-08-21T18:22:15.594Z,1.90
2023-08-21T18:24:43.221Z,1.80
2023-08-21T18:27:10.730Z,1.67
2023-08-21T18:29:39.439Z,1.92
2023-08-21T18:32:07.076Z,2.30
2023-08-21T18:34:35.689Z,2.10
2023-08-21T18:37:03.035Z,2.17
2023-08-21T18:39:31.334Z,2.38
2023-08-21T18:41:58.538Z,1.98
2023-08-21T18:44:26.499Z,1.80
2023-08-21T18:46:53.815Z,1.75
2023-08-21T18:49:21.077Z,2.38
2023-08-21T18:51:48.355Z,2.10
2023-08-21T18:54:17.086Z,2.00
2023-08-21T18:56:44.471Z,1.90
2023-08-21T18:59:11.766Z,2.28
2023-08-21T19:01:39.303Z,2.08
2023-08-21T19:04:06.556Z,2.15
2023-08-21T19:06:33.730Z,2.30
2023-08-21T19:09:00.915Z,1.90
2023-08-21T19:11:28.346Z,1.90
2023-08-21T19:13:55.842Z,2.05
2023-08-21T19:16:23.911Z,2.10
2023-08-21T19:18:51.182Z,1.83
2023-08-21T19:21:18.391Z,1.77
2023-08-21T19:23:45.539Z,2.45
2023-08-21T19:26:12.743Z,2.00
2023-08-21T19:28:39.908Z,2.10
2023-08-21T19:31:10.412Z,2.60
2023-08-21T19:33:37.786Z,2.88
2023-08-21T19:36:12.778Z,2.17
2023-08-21T19:38:40.098Z,2.20
2023-08-21T19:41:11.346Z,2.42
2023-08-21T19:43:38.587Z,2.38
2023-08-21T19:46:05.787Z,2.75
2023-08-21T19:48:33.131Z,2.60
2023-08-21T19:51:00.392Z,2.40
2023-08-21T19:53:27.738Z,2.05
2023-08-21T19:55:56.789Z,2.38
2023-08-21T19:58:26.024Z,3.30
2023-08-21T20:00:53.424Z,3.33
2023-08-21T20:03:21.419Z,4.18
2023-08-21T20:05:48.902Z,4.85
2023-08-21T20:08:16.674Z,5.05
2023-08-21T20:10:44.144Z,5.28
2023-08-21T20:13:11.597Z,4.72
2023-08-21T20:15:38.891Z,4.38
2023-08-21T20:18:06.506Z,5.72
2023-08-21T20:20:33.903Z,4.18
2023-08-21T20:23:01.225Z,3.15
2023-08-21T20:25:28.442Z,3.55
2023-08-21T20:27:55.665Z,4.18
2023-08-21T20:30:22.941Z,3.05
2023-08-21T20:32:50.195Z,3.25
2023-08-21T20:35:17.608Z,2.97
2023-08-21T20:37:44.893Z,3.65
2023-08-21T20:40:12.644Z,3.20
2023-08-21T20:42:42.826Z,3.38
2023-08-21T20:45:10.829Z,3.28
2023-08-21T20:47:38.745Z,2.92
2023-08-21T20:50:06.858Z,2.95
2023-08-21T20:52:34.404Z,2.80
2023-08-21T20:55:01.729Z,2.92
2023-08-21T20:57:29.036Z,2.60
2023-08-21T20:59:56.390Z,2.83
2023-08-21T21:02:24.282Z,2.70
2023-08-21T21:04:54.827Z,2.75
2023-08-21T21:07:22.224Z,2.92
2023-08-21T21:09:49.544Z,3.28
2023-08-21T21:12:17.585Z,2.45
2023-08-21T21:14:44.835Z,2.88
2023-08-21T21:17:12.085Z,2.92
2023-08-21T21:19:39.262Z,2.92
2023-08-21T21:22:06.580Z,3.00
2023-08-21T21:24:33.873Z,2.90
2023-08-21T21:27:01.048Z,3.30
2023-08-21T21:29:28.238Z,3.03
2023-08-21T21:31:55.821Z,3.00
2023-08-21T21:34:23.079Z,3.08
2023-08-21T21:36:50.345Z,3.08
2023-08-21T21:39:17.837Z,3.00
2023-08-21T21:41:45.178Z,3.25
2023-08-21T21:44:12.386Z,3.20
2023-08-21T21:46:39.641Z,3.35
2023-08-21T21:49:06.856Z,3.42
2023-08-21T21:51:34.077Z,3.25
2023-08-21T21:54:01.340Z,3.08
2023-08-21T21:56:28.562Z,3.25
2023-08-21T21:58:55.748Z,3.10
2023-08-21T22:01:23.180Z,4.32
2023-08-21T22:03:51.335Z,2.88
2023-08-21T22:06:18.687Z,3.10
2023-08-21T22:08:45.961Z,3.05
2023-08-21T22:11:14.241Z,2.78
2023-08-21T22:13:41.498Z,3.05
2023-08-21T22:16:08.727Z,3.63
2023-08-21T22:18:37.149Z,2.85
2023-08-21T22:21:08.711Z,2.85
2023-08-21T22:23:36.176Z,3.22
2023-08-21T22:26:03.766Z,3.33
2023-08-21T22:28:31.061Z,3.20
2023-08-21T22:30:58.292Z,2.83
2023-08-21T22:33:25.466Z,3.42
2023-08-21T22:35:52.702Z,3.75
2023-08-21T22:38:19.933Z,3.10
2023-08-21T22:40:47.128Z,3.25
2023-08-21T22:43:14.334Z,3.78
2023-08-21T22:45:42.041Z,3.55
2023-08-21T22:48:09.407Z,4.07
2023-08-21T22:50:42.206Z,4.38
2023-08-21T22:53:09.427Z,3.90
2023-08-21T22:55:37.662Z,3.15
2023-08-21T22:58:05.301Z,3.30
2023-08-21T23:00:32.565Z,3.30
2023-08-21T23:02:59.893Z,3.33
2023-08-21T23:05:27.698Z,3.80
2023-08-21T23:07:55.055Z,3.40
2023-08-21T23:10:22.336Z,3.63
2023-08-21T23:12:49.901Z,3.72
2023-08-21T23:15:19.121Z,3.40
2023-08-21T23:17:49.700Z,3.08
2023-08-21T23:20:17.315Z,3.72
2023-08-21T23:22:45.186Z,3.33
2023-08-21T23:25:13.191Z,3.10
2023-08-21T23:27:40.894Z,3.38
2023-08-21T23:30:09.884Z,3.33
2023-08-21T23:32:57.631Z,3.88
2023-08-21T23:35:25.164Z,3.63
2023-08-21T23:37:52.450Z,3.45
2023-08-21T23:40:19.769Z,4.25
2023-08-21T23:42:47.323Z,3.40
2023-08-21T23:45:14.804Z,3.72
2023-08-21T23:47:43.798Z,3.95
2023-08-21T23:50:12.339Z,3.75
2023-08-21T23:52:40.011Z,3.80
2023-08-21T23:55:07.606Z,4.10
2023-08-21T23:57:34.951Z,3.50
